sensor_id;sensor_type;location;lat;lon;timestamp;P1;durP1;ratioP1;P2;durP2;ratioP2
45007;SDS011;30743;52.008;5.644;2024-01-06T00:00:34;9.75;;;6.65;;
45007;SDS011;30743;52.008;5.644;2024-01-06T00:03:00;8.57;;;6.15;;
45007;SDS011;30743;52.008;5.644;2024-01-06T00:05:25;8.60;;;6.28;;
45007;SDS011;30743;52.008;5.644;2024-01-06T00:07:51;7.32;;;5.47;;
45007;SDS011;30743;52.008;5.644;2024-01-06T00:10:17;7.80;;;6.00;;
45007;SDS011;30743;52.008;5.644;2024-01-06T00:12:42;8.50;;;5.97;;
45007;SDS011;30743;52.008;5.644;2024-01-06T00:15:08;7.68;;;5.82;;
45007;SDS011;30743;52.008;5.644;2024-01-06T00:17:35;8.65;;;6.07;;
45007;SDS011;30743;52.008;5.644;2024-01-06T00:20:01;6.63;;;5.13;;
45007;SDS011;30743;52.008;5.644;2024-01-06T00:22:27;7.07;;;5.43;;
45007;SDS011;30743;52.008;5.644;2024-01-06T00:24:53;7.65;;;5.57;;
45007;SDS011;30743;52.008;5.644;2024-01-06T00:27:19;6.30;;;4.93;;
45007;SDS011;30743;52.008;5.644;2024-01-06T00:29:44;7.07;;;5.30;;
45007;SDS011;30743;52.008;5.644;2024-01-06T00:32:10;6.72;;;4.68;;
45007;SDS011;30743;52.008;5.644;2024-01-06T00:34:35;6.85;;;5.18;;
45007;SDS011;30743;52.008;5.644;2024-01-06T00:37:01;7.15;;;5.43;;
45007;SDS011;30743;52.008;5.644;2024-01-06T00:39:27;6.32;;;4.80;;
45007;SDS011;30743;52.008;5.644;2024-01-06T00:41:52;6.65;;;5.57;;
45007;SDS011;30743;52.008;5.644;2024-01-06T00:44:18;8.98;;;5.10;;
45007;SDS011;30743;52.008;5.644;2024-01-06T00:46:44;6.03;;;4.32;;
45007;SDS011;30743;52.008;5.644;2024-01-06T00:49:10;7.28;;;5.38;;
45007;SDS011;30743;52.008;5.644;2024-01-06T00:51:35;6.10;;;4.40;;
45007;SDS011;30743;52.008;5.644;2024-01-06T00:54:01;6.93;;;5.43;;
45007;SDS011;30743;52.008;5.644;2024-01-06T00:56:27;5.90;;;4.63;;
45007;SDS011;30743;52.008;5.644;2024-01-06T00:58:53;6.00;;;4.85;;
45007;SDS011;30743;52.008;5.644;2024-01-06T01:01:19;5.70;;;4.40;;
45007;SDS011;30743;52.008;5.644;2024-01-06T01:03:45;5.80;;;4.60;;
45007;SDS011;30743;52.008;5.644;2024-01-06T01:06:10;5.80;;;4.50;;
45007;SDS011;30743;52.008;5.644;2024-01-06T01:08:36;5.10;;;4.15;;
45007;SDS011;30743;52.008;5.644;2024-01-06T01:11:01;5.57;;;4.30;;
45007;SDS011;30743;52.008;5.644;2024-01-06T01:13:27;4.78;;;3.90;;
45007;SDS011;30743;52.008;5.644;2024-01-06T01:15:53;7.28;;;4.68;;
45007;SDS011;30743;52.008;5.644;2024-01-06T01:18:18;5.60;;;4.32;;
45007;SDS011;30743;52.008;5.644;2024-01-06T01:20:44;5.90;;;4.72;;
45007;SDS011;30743;52.008;5.644;2024-01-06T01:23:10;5.82;;;4.60;;
45007;SDS011;30743;52.008;5.644;2024-01-06T01:25:35;5.97;;;4.82;;
45007;SDS011;30743;52.008;5.644;2024-01-06T01:28:01;6.32;;;4.88;;
45007;SDS011;30743;52.008;5.644;2024-01-06T01:30:27;6.55;;;4.55;;
45007;SDS011;30743;52.008;5.644;2024-01-06T01:32:52;5.55;;;4.43;;
45007;SDS011;30743;52.008;5.644;2024-01-06T01:35:18;6.65;;;5.05;;
45007;SDS011;30743;52.008;5.644;2024-01-06T01:37:43;6.35;;;5.07;;
45007;SDS011;30743;52.008;5.644;2024-01-06T01:40:09;6.53;;;5.45;;
45007;SDS011;30743;52.008;5.644;2024-01-06T01:42:35;7.70;;;6.13;;
45007;SDS011;30743;52.008;5.644;2024-01-06T01:45:01;9.75;;;5.93;;
45007;SDS011;30743;52.008;5.644;2024-01-06T01:47:26;7.70;;;5.85;;
45007;SDS011;30743;52.008;5.644;2024-01-06T01:49:52;8.13;;;5.68;;
45007;SDS011;30743;52.008;5.644;2024-01-06T01:52:20;8.15;;;6.03;;
45007;SDS011;30743;52.008;5.644;2024-01-06T01:54:46;8.20;;;6.00;;
45007;SDS011;30743;52.008;5.644;2024-01-06T01:57:12;10.50;;;6.70;;
45007;SDS011;30743;52.008;5.644;2024-01-06T01:59:39;8.88;;;6.55;;
45007;SDS011;30743;52.008;5.644;2024-01-06T02:02:05;8.98;;;6.80;;
45007;SDS011;30743;52.008;5.644;2024-01-06T02:04:31;10.48;;;6.75;;
45007;SDS011;30743;52.008;5.644;2024-01-06T02:06:57;10.38;;;7.05;;
45007;SDS011;30743;52.008;5.644;2024-01-06T02:09:22;8.38;;;6.88;;
45007;SDS011;30743;52.008;5.644;2024-01-06T02:11:52;10.27;;;7.40;;
45007;SDS011;30743;52.008;5.644;2024-01-06T02:14:18;9.55;;;7.35;;
45007;SDS011;30743;52.008;5.644;2024-01-06T02:16:43;9.93;;;7.18;;
45007;SDS011;30743;52.008;5.644;2024-01-06T02:19:09;8.48;;;6.82;;
45007;SDS011;30743;52.008;5.644;2024-01-06T02:21:39;9.68;;;7.28;;
45007;SDS011;30743;52.008;5.644;2024-01-06T02:24:07;9.95;;;7.13;;
45007;SDS011;30743;52.008;5.644;2024-01-06T02:26:32;9.48;;;6.82;;
45007;SDS011;30743;52.008;5.644;2024-01-06T02:28:58;8.50;;;6.45;;
45007;SDS011;30743;52.008;5.644;2024-01-06T02:31:23;8.45;;;6.47;;
45007;SDS011;30743;52.008;5.644;2024-01-06T02:33:49;7.45;;;6.18;;
45007;SDS011;30743;52.008;5.644;2024-01-06T02:36:15;8.10;;;6.18;;
45007;SDS011;30743;52.008;5.644;2024-01-06T02:38:40;8.63;;;6.13;;
45007;SDS011;30743;52.008;5.644;2024-01-06T02:41:06;7.82;;;6.07;;
45007;SDS011;30743;52.008;5.644;2024-01-06T02:43:32;8.43;;;5.97;;
45007;SDS011;30743;52.008;5.644;2024-01-06T02:45:57;7.82;;;5.53;;
45007;SDS011;30743;52.008;5.644;2024-01-06T02:48:23;7.95;;;6.25;;
45007;SDS011;30743;52.008;5.644;2024-01-06T02:50:48;9.95;;;6.45;;
45007;SDS011;30743;52.008;5.644;2024-01-06T02:53:14;8.40;;;6.07;;
45007;SDS011;30743;52.008;5.644;2024-01-06T02:55:40;8.05;;;6.03;;
45007;SDS011;30743;52.008;5.644;2024-01-06T02:58:05;8.60;;;6.00;;
45007;SDS011;30743;52.008;5.644;2024-01-06T03:00:31;8.18;;;6.30;;
45007;SDS011;30743;52.008;5.644;2024-01-06T03:02:57;8.65;;;6.78;;
45007;SDS011;30743;52.008;5.644;2024-01-06T03:05:22;8.23;;;6.28;;
45007;SDS011;30743;52.008;5.644;2024-01-06T03:07:48;8.65;;;6.90;;
45007;SDS011;30743;52.008;5.644;2024-01-06T03:10:13;9.18;;;6.82;;
45007;SDS011;30743;52.008;5.644;2024-01-06T03:12:39;8.52;;;6.25;;
45007;SDS011;30743;52.008;5.644;2024-01-06T03:15:05;9.30;;;6.90;;
45007;SDS011;30743;52.008;5.644;2024-01-06T03:17:31;9.15;;;6.68;;
45007;SDS011;30743;52.008;5.644;2024-01-06T03:19:57;8.32;;;6.40;;
45007;SDS011;30743;52.008;5.644;2024-01-06T03:22:22;11.55;;;7.22;;
45007;SDS011;30743;52.008;5.644;2024-01-06T03:24:48;10.60;;;7.60;;
45007;SDS011;30743;52.008;5.644;2024-01-06T03:27:14;8.98;;;6.75;;
45007;SDS011;30743;52.008;5.644;2024-01-06T03:29:39;9.18;;;6.95;;
45007;SDS011;30743;52.008;5.644;2024-01-06T03:32:05;10.07;;;6.70;;
45007;SDS011;30743;52.008;5.644;2024-01-06T03:34:31;10.63;;;7.72;;
45007;SDS011;30743;52.008;5.644;2024-01-06T03:36:57;11.50;;;7.70;;
45007;SDS011;30743;52.008;5.644;2024-01-06T03:39:22;10.35;;;7.30;;
45007;SDS011;30743;52.008;5.644;2024-01-06T03:41:48;11.52;;;7.18;;
45007;SDS011;30743;52.008;5.644;2024-01-06T03:44:14;11.38;;;7.05;;
45007;SDS011;30743;52.008;5.644;2024-01-06T03:46:39;11.25;;;7.30;;
45007;SDS011;30743;52.008;5.644;2024-01-06T03:49:05;9.88;;;7.43;;
45007;SDS011;30743;52.008;5.644;2024-01-06T03:51:31;12.15;;;8.10;;
45007;SDS011;30743;52.008;5.644;2024-01-06T03:53:56;12.02;;;8.27;;
45007;SDS011;30743;52.008;5.644;2024-01-06T03:56:22;12.57;;;7.88;;
45007;SDS011;30743;52.008;5.644;2024-01-06T03:58:47;12.68;;;9.10;;
45007;SDS011;30743;52.008;5.644;2024-01-06T04:01:13;11.82;;;8.25;;
45007;SDS011;30743;52.008;5.644;2024-01-06T04:03:39;11.80;;;8.63;;
45007;SDS011;30743;52.008;5.644;2024-01-06T04:06:07;12.00;;;8.13;;
45007;SDS011;30743;52.008;5.644;2024-01-06T04:08:35;12.10;;;8.60;;
45007;SDS011;30743;52.008;5.644;2024-01-06T04:11:01;12.00;;;8.52;;
45007;SDS011;30743;52.008;5.644;2024-01-06T04:13:27;11.27;;;7.93;;
45007;SDS011;30743;52.008;5.644;2024-01-06T04:15:53;12.23;;;7.88;;
45007;SDS011;30743;52.008;5.644;2024-01-06T04:18:19;12.68;;;8.30;;
45007;SDS011;30743;52.008;5.644;2024-01-06T04:20:44;10.82;;;8.20;;
45007;SDS011;30743;52.008;5.644;2024-01-06T04:23:10;13.73;;;8.23;;
45007;SDS011;30743;52.008;5.644;2024-01-06T04:25:35;12.90;;;9.15;;
45007;SDS011;30743;52.008;5.644;2024-01-06T04:28:01;10.93;;;8.77;;
45007;SDS011;30743;52.008;5.644;2024-01-06T04:30:26;11.68;;;8.02;;
45007;SDS011;30743;52.008;5.644;2024-01-06T04:32:52;13.00;;;8.90;;
45007;SDS011;30743;52.008;5.644;2024-01-06T04:35:19;11.38;;;7.70;;
45007;SDS011;30743;52.008;5.644;2024-01-06T04:37:45;12.30;;;9.13;;
45007;SDS011;30743;52.008;5.644;2024-01-06T04:40:11;11.55;;;8.25;;
45007;SDS011;30743;52.008;5.644;2024-01-06T04:42:36;12.05;;;8.23;;
45007;SDS011;30743;52.008;5.644;2024-01-06T04:45:02;11.13;;;7.85;;
45007;SDS011;30743;52.008;5.644;2024-01-06T04:47:29;11.60;;;8.05;;
45007;SDS011;30743;52.008;5.644;2024-01-06T04:49:55;9.07;;;6.57;;
45007;SDS011;30743;52.008;5.644;2024-01-06T04:52:21;9.98;;;6.75;;
45007;SDS011;30743;52.008;5.644;2024-01-06T04:54:47;11.25;;;6.53;;
45007;SDS011;30743;52.008;5.644;2024-01-06T04:57:12;8.30;;;5.97;;
45007;SDS011;30743;52.008;5.644;2024-01-06T04:59:39;8.70;;;6.47;;
45007;SDS011;30743;52.008;5.644;2024-01-06T05:02:04;7.85;;;5.68;;
45007;SDS011;30743;52.008;5.644;2024-01-06T05:04:31;7.57;;;5.38;;
45007;SDS011;30743;52.008;5.644;2024-01-06T05:06:57;7.65;;;5.53;;
45007;SDS011;30743;52.008;5.644;2024-01-06T05:09:23;7.65;;;5.07;;
45007;SDS011;30743;52.008;5.644;2024-01-06T05:11:50;8.68;;;5.13;;
45007;SDS011;30743;52.008;5.644;2024-01-06T05:14:15;8.68;;;5.10;;
45007;SDS011;30743;52.008;5.644;2024-01-06T05:16:41;8.07;;;5.60;;
45007;SDS011;30743;52.008;5.644;2024-01-06T05:19:07;7.10;;;5.13;;
45007;SDS011;30743;52.008;5.644;2024-01-06T05:21:33;6.80;;;5.20;;
45007;SDS011;30743;52.008;5.644;2024-01-06T05:23:59;6.28;;;4.47;;
45007;SDS011;30743;52.008;5.644;2024-01-06T05:26:24;7.22;;;5.25;;
45007;SDS011;30743;52.008;5.644;2024-01-06T05:28:51;7.15;;;4.78;;
45007;SDS011;30743;52.008;5.644;2024-01-06T05:31:17;6.85;;;4.60;;
45007;SDS011;30743;52.008;5.644;2024-01-06T05:33:43;7.60;;;5.10;;
45007;SDS011;30743;52.008;5.644;2024-01-06T05:36:08;9.32;;;5.30;;
45007;SDS011;30743;52.008;5.644;2024-01-06T05:38:34;8.32;;;5.20;;
45007;SDS011;30743;52.008;5.644;2024-01-06T05:41:01;7.97;;;5.50;;
45007;SDS011;30743;52.008;5.644;2024-01-06T05:43:27;7.25;;;5.90;;
45007;SDS011;30743;52.008;5.644;2024-01-06T05:45:52;7.80;;;5.43;;
45007;SDS011;30743;52.008;5.644;2024-01-06T05:48:18;10.02;;;5.85;;
45007;SDS011;30743;52.008;5.644;2024-01-06T05:50:44;7.35;;;5.75;;
45007;SDS011;30743;52.008;5.644;2024-01-06T05:53:09;7.68;;;5.82;;
45007;SDS011;30743;52.008;5.644;2024-01-06T05:55:35;7.07;;;5.50;;
45007;SDS011;30743;52.008;5.644;2024-01-06T05:58:01;7.63;;;5.35;;
45007;SDS011;30743;52.008;5.644;2024-01-06T06:00:27;8.50;;;5.80;;
45007;SDS011;30743;52.008;5.644;2024-01-06T06:02:53;7.70;;;5.45;;
45007;SDS011;30743;52.008;5.644;2024-01-06T06:05:18;7.40;;;5.80;;
45007;SDS011;30743;52.008;5.644;2024-01-06T06:07:45;6.82;;;5.30;;
45007;SDS011;30743;52.008;5.644;2024-01-06T06:10:11;8.32;;;6.15;;
45007;SDS011;30743;52.008;5.644;2024-01-06T06:12:36;7.50;;;5.68;;
45007;SDS011;30743;52.008;5.644;2024-01-06T06:15:03;8.45;;;5.40;;
45007;SDS011;30743;52.008;5.644;2024-01-06T06:17:30;8.60;;;6.40;;
45007;SDS011;30743;52.008;5.644;2024-01-06T06:19:56;8.43;;;6.03;;
45007;SDS011;30743;52.008;5.644;2024-01-06T06:22:22;11.35;;;6.57;;
45007;SDS011;30743;52.008;5.644;2024-01-06T06:24:48;9.13;;;7.13;;
45007;SDS011;30743;52.008;5.644;2024-01-06T06:27:13;8.77;;;6.07;;
45007;SDS011;30743;52.008;5.644;2024-01-06T06:29:39;8.55;;;6.45;;
45007;SDS011;30743;52.008;5.644;2024-01-06T06:32:05;7.97;;;6.38;;
45007;SDS011;30743;52.008;5.644;2024-01-06T06:34:30;8.77;;;6.65;;
45007;SDS011;30743;52.008;5.644;2024-01-06T06:36:56;8.55;;;6.40;;
45007;SDS011;30743;52.008;5.644;2024-01-06T06:39:22;8.82;;;6.25;;
45007;SDS011;30743;52.008;5.644;2024-01-06T06:41:47;8.45;;;6.25;;
45007;SDS011;30743;52.008;5.644;2024-01-06T06:44:13;9.75;;;6.97;;
45007;SDS011;30743;52.008;5.644;2024-01-06T06:46:39;8.18;;;6.30;;
45007;SDS011;30743;52.008;5.644;2024-01-06T06:49:04;8.98;;;6.70;;
45007;SDS011;30743;52.008;5.644;2024-01-06T06:51:30;7.85;;;6.05;;
45007;SDS011;30743;52.008;5.644;2024-01-06T06:53:55;8.95;;;6.82;;
45007;SDS011;30743;52.008;5.644;2024-01-06T06:56:21;9.10;;;6.05;;
45007;SDS011;30743;52.008;5.644;2024-01-06T06:58:47;10.30;;;6.50;;
45007;SDS011;30743;52.008;5.644;2024-01-06T07:01:13;8.35;;;6.10;;
45007;SDS011;30743;52.008;5.644;2024-01-06T07:03:40;8.98;;;5.93;;
45007;SDS011;30743;52.008;5.644;2024-01-06T07:06:06;7.28;;;5.75;;
45007;SDS011;30743;52.008;5.644;2024-01-06T07:08:31;9.43;;;6.78;;
45007;SDS011;30743;52.008;5.644;2024-01-06T07:10:57;7.20;;;5.65;;
45007;SDS011;30743;52.008;5.644;2024-01-06T07:13:22;9.68;;;6.13;;
45007;SDS011;30743;52.008;5.644;2024-01-06T07:15:48;8.63;;;5.97;;
45007;SDS011;30743;52.008;5.644;2024-01-06T07:18:13;8.82;;;6.10;;
45007;SDS011;30743;52.008;5.644;2024-01-06T07:20:39;8.57;;;5.85;;
45007;SDS011;30743;52.008;5.644;2024-01-06T07:23:04;6.63;;;5.32;;
45007;SDS011;30743;52.008;5.644;2024-01-06T07:25:30;8.50;;;6.13;;
45007;SDS011;30743;52.008;5.644;2024-01-06T07:27:55;10.05;;;6.10;;
45007;SDS011;30743;52.008;5.644;2024-01-06T07:30:21;9.00;;;5.85;;
45007;SDS011;30743;52.008;5.644;2024-01-06T07:32:47;8.98;;;5.80;;
45007;SDS011;30743;52.008;5.644;2024-01-06T07:35:14;9.38;;;5.75;;
45007;SDS011;30743;52.008;5.644;2024-01-06T07:37:41;8.55;;;5.80;;
45007;SDS011;30743;52.008;5.644;2024-01-06T07:40:06;8.25;;;5.63;;
45007;SDS011;30743;52.008;5.644;2024-01-06T07:42:32;9.43;;;6.18;;
45007;SDS011;30743;52.008;5.644;2024-01-06T07:44:58;10.45;;;5.60;;
45007;SDS011;30743;52.008;5.644;2024-01-06T07:47:23;10.77;;;6.43;;
45007;SDS011;30743;52.008;5.644;2024-01-06T07:49:49;8.43;;;6.22;;
45007;SDS011;30743;52.008;5.644;2024-01-06T07:52:15;8.82;;;5.95;;
45007;SDS011;30743;52.008;5.644;2024-01-06T07:54:41;8.57;;;6.40;;
45007;SDS011;30743;52.008;5.644;2024-01-06T07:57:07;8.60;;;5.93;;
45007;SDS011;30743;52.008;5.644;2024-01-06T07:59:33;10.60;;;6.85;;
45007;SDS011;30743;52.008;5.644;2024-01-06T08:01:58;11.40;;;7.63;;
45007;SDS011;30743;52.008;5.644;2024-01-06T08:04:24;10.45;;;6.85;;
45007;SDS011;30743;52.008;5.644;2024-01-06T08:06:49;11.60;;;8.48;;
45007;SDS011;30743;52.008;5.644;2024-01-06T08:09:15;14.45;;;7.47;;
45007;SDS011;30743;52.008;5.644;2024-01-06T08:11:41;12.50;;;7.45;;
45007;SDS011;30743;52.008;5.644;2024-01-06T08:14:10;9.38;;;6.10;;
45007;SDS011;30743;52.008;5.644;2024-01-06T08:16:36;8.65;;;5.90;;
45007;SDS011;30743;52.008;5.644;2024-01-06T08:19:01;10.20;;;6.25;;
45007;SDS011;30743;52.008;5.644;2024-01-06T08:21:27;9.18;;;5.57;;
45007;SDS011;30743;52.008;5.644;2024-01-06T08:23:53;8.82;;;6.43;;
45007;SDS011;30743;52.008;5.644;2024-01-06T08:26:18;9.63;;;5.80;;
45007;SDS011;30743;52.008;5.644;2024-01-06T08:28:44;9.23;;;6.43;;
45007;SDS011;30743;52.008;5.644;2024-01-06T08:31:09;11.80;;;6.97;;
45007;SDS011;30743;52.008;5.644;2024-01-06T08:33:35;10.30;;;6.43;;
45007;SDS011;30743;52.008;5.644;2024-01-06T08:36:01;10.15;;;6.82;;
45007;SDS011;30743;52.008;5.644;2024-01-06T08:38:26;9.40;;;5.85;;
45007;SDS011;30743;52.008;5.644;2024-01-06T08:40:52;8.60;;;6.43;;
45007;SDS011;30743;52.008;5.644;2024-01-06T08:43:18;9.65;;;6.35;;
45007;SDS011;30743;52.008;5.644;2024-01-06T08:45:44;8.63;;;6.03;;
45007;SDS011;30743;52.008;5.644;2024-01-06T08:48:09;9.38;;;6.28;;
45007;SDS011;30743;52.008;5.644;2024-01-06T08:50:36;8.38;;;6.13;;
45007;SDS011;30743;52.008;5.644;2024-01-06T08:53:02;9.52;;;6.90;;
45007;SDS011;30743;52.008;5.644;2024-01-06T08:55:27;8.25;;;5.95;;
45007;SDS011;30743;52.008;5.644;2024-01-06T08:57:53;8.32;;;6.30;;
45007;SDS011;30743;52.008;5.644;2024-01-06T09:00:19;8.90;;;5.75;;
45007;SDS011;30743;52.008;5.644;2024-01-06T09:02:44;10.40;;;6.35;;
45007;SDS011;30743;52.008;5.644;2024-01-06T09:05:10;7.70;;;5.50;;
45007;SDS011;30743;52.008;5.644;2024-01-06T09:07:35;9.23;;;6.18;;
45007;SDS011;30743;52.008;5.644;2024-01-06T09:10:01;9.15;;;6.50;;
45007;SDS011;30743;52.008;5.644;2024-01-06T09:12:26;9.43;;;6.90;;
45007;SDS011;30743;52.008;5.644;2024-01-06T09:14:52;9.20;;;6.35;;
45007;SDS011;30743;52.008;5.644;2024-01-06T09:17:18;9.98;;;6.20;;
45007;SDS011;30743;52.008;5.644;2024-01-06T09:19:43;8.50;;;6.20;;
45007;SDS011;30743;52.008;5.644;2024-01-06T09:22:09;9.02;;;6.30;;
45007;SDS011;30743;52.008;5.644;2024-01-06T09:24:34;8.43;;;5.97;;
45007;SDS011;30743;52.008;5.644;2024-01-06T09:27:00;8.65;;;5.40;;
45007;SDS011;30743;52.008;5.644;2024-01-06T09:29:25;7.88;;;5.72;;
45007;SDS011;30743;52.008;5.644;2024-01-06T09:31:51;10.23;;;5.93;;
45007;SDS011;30743;52.008;5.644;2024-01-06T09:34:17;6.53;;;5.35;;
45007;SDS011;30743;52.008;5.644;2024-01-06T09:36:42;7.25;;;5.38;;
45007;SDS011;30743;52.008;5.644;2024-01-06T09:39:08;7.35;;;5.68;;
45007;SDS011;30743;52.008;5.644;2024-01-06T09:41:33;10.32;;;6.15;;
45007;SDS011;30743;52.008;5.644;2024-01-06T09:43:59;7.43;;;5.82;;
45007;SDS011;30743;52.008;5.644;2024-01-06T09:46:25;7.30;;;5.90;;
45007;SDS011;30743;52.008;5.644;2024-01-06T09:48:52;8.15;;;6.13;;
45007;SDS011;30743;52.008;5.644;2024-01-06T09:51:19;7.45;;;5.53;;
45007;SDS011;30743;52.008;5.644;2024-01-06T09:53:48;7.55;;;5.80;;
45007;SDS011;30743;52.008;5.644;2024-01-06T09:56:24;8.18;;;6.15;;
45007;SDS011;30743;52.008;5.644;2024-01-06T09:58:50;8.48;;;5.82;;
45007;SDS011;30743;52.008;5.644;2024-01-06T10:01:19;7.45;;;5.47;;
45007;SDS011;30743;52.008;5.644;2024-01-06T10:03:46;7.53;;;5.55;;
45007;SDS011;30743;52.008;5.644;2024-01-06T10:06:15;7.68;;;5.75;;
45007;SDS011;30743;52.008;5.644;2024-01-06T10:08:47;7.68;;;5.50;;
45007;SDS011;30743;52.008;5.644;2024-01-06T10:11:14;7.70;;;5.57;;
45007;SDS011;30743;52.008;5.644;2024-01-06T10:13:40;7.88;;;6.00;;
45007;SDS011;30743;52.008;5.644;2024-01-06T10:16:06;7.28;;;5.53;;
45007;SDS011;30743;52.008;5.644;2024-01-06T10:18:32;7.70;;;5.88;;
45007;SDS011;30743;52.008;5.644;2024-01-06T10:21:00;7.65;;;6.45;;
45007;SDS011;30743;52.008;5.644;2024-01-06T10:23:29;9.27;;;5.97;;
45007;SDS011;30743;52.008;5.644;2024-01-06T10:25:56;8.85;;;5.97;;
45007;SDS011;30743;52.008;5.644;2024-01-06T10:28:22;8.77;;;6.57;;
45007;SDS011;30743;52.008;5.644;2024-01-06T10:30:49;7.65;;;5.90;;
45007;SDS011;30743;52.008;5.644;2024-01-06T10:33:17;7.38;;;5.88;;
45007;SDS011;30743;52.008;5.644;2024-01-06T10:35:47;8.75;;;6.30;;
45007;SDS011;30743;52.008;5.644;2024-01-06T10:38:13;8.02;;;5.95;;
45007;SDS011;30743;52.008;5.644;2024-01-06T10:40:41;7.15;;;5.47;;
45007;SDS011;30743;52.008;5.644;2024-01-06T10:43:33;6.55;;;5.32;;
45007;SDS011;30743;52.008;5.644;2024-01-06T10:46:06;7.93;;;5.05;;
45007;SDS011;30743;52.008;5.644;2024-01-06T10:48:35;6.57;;;5.35;;
45007;SDS011;30743;52.008;5.644;2024-01-06T10:51:07;7.20;;;5.63;;
45007;SDS011;30743;52.008;5.644;2024-01-06T10:53:34;7.43;;;5.50;;
45007;SDS011;30743;52.008;5.644;2024-01-06T10:56:04;7.35;;;5.60;;
45007;SDS011;30743;52.008;5.644;2024-01-06T10:58:32;7.05;;;5.38;;
45007;SDS011;30743;52.008;5.644;2024-01-06T11:00:58;7.07;;;5.20;;
45007;SDS011;30743;52.008;5.644;2024-01-06T11:03:26;7.15;;;5.25;;
45007;SDS011;30743;52.008;5.644;2024-01-06T11:05:53;7.53;;;5.28;;
45007;SDS011;30743;52.008;5.644;2024-01-06T11:08:19;7.85;;;5.35;;
45007;SDS011;30743;52.008;5.644;2024-01-06T11:10:47;5.50;;;4.68;;
45007;SDS011;30743;52.008;5.644;2024-01-06T11:13:13;7.88;;;5.55;;
45007;SDS011;30743;52.008;5.644;2024-01-06T11:15:46;7.50;;;5.93;;
45007;SDS011;30743;52.008;5.644;2024-01-06T11:23:42;6.35;;;5.30;;
45007;SDS011;30743;52.008;5.644;2024-01-06T11:26:08;6.43;;;5.60;;
45007;SDS011;30743;52.008;5.644;2024-01-06T11:28:46;7.35;;;5.97;;
45007;SDS011;30743;52.008;5.644;2024-01-06T11:31:13;7.57;;;6.05;;
45007;SDS011;30743;52.008;5.644;2024-01-06T11:33:42;8.95;;;6.07;;
45007;SDS011;30743;52.008;5.644;2024-01-06T11:36:16;9.18;;;6.20;;
45007;SDS011;30743;52.008;5.644;2024-01-06T11:38:44;7.78;;;5.72;;
45007;SDS011;30743;52.008;5.644;2024-01-06T11:42:00;7.28;;;5.78;;
45007;SDS011;30743;52.008;5.644;2024-01-06T11:44:22;6.53;;;5.43;;
45007;SDS011;30743;52.008;5.644;2024-01-06T11:46:48;6.82;;;5.53;;
45007;SDS011;30743;52.008;5.644;2024-01-06T11:49:15;8.63;;;5.90;;
45007;SDS011;30743;52.008;5.644;2024-01-06T11:51:41;7.57;;;6.05;;
45007;SDS011;30743;52.008;5.644;2024-01-06T11:54:07;8.85;;;5.97;;
45007;SDS011;30743;52.008;5.644;2024-01-06T11:56:35;6.90;;;5.53;;
45007;SDS011;30743;52.008;5.644;2024-01-06T11:59:00;7.70;;;5.55;;
45007;SDS011;30743;52.008;5.644;2024-01-06T12:01:26;7.50;;;5.63;;
45007;SDS011;30743;52.008;5.644;2024-01-06T12:03:54;8.60;;;5.90;;
45007;SDS011;30743;52.008;5.644;2024-01-06T12:06:21;10.18;;;6.18;;
45007;SDS011;30743;52.008;5.644;2024-01-06T12:08:46;8.50;;;6.03;;
45007;SDS011;30743;52.008;5.644;2024-01-06T12:11:12;8.15;;;6.30;;
45007;SDS011;30743;52.008;5.644;2024-01-06T12:13:38;8.35;;;6.13;;
45007;SDS011;30743;52.008;5.644;2024-01-06T12:16:04;8.18;;;6.47;;
45007;SDS011;30743;52.008;5.644;2024-01-06T12:18:30;7.38;;;6.22;;
45007;SDS011;30743;52.008;5.644;2024-01-06T12:20:55;9.73;;;6.88;;
45007;SDS011;30743;52.008;5.644;2024-01-06T12:23:27;8.52;;;6.40;;
45007;SDS011;30743;52.008;5.644;2024-01-06T12:25:54;7.88;;;6.47;;
45007;SDS011;30743;52.008;5.644;2024-01-06T12:28:20;8.13;;;6.70;;
45007;SDS011;30743;52.008;5.644;2024-01-06T12:30:46;10.02;;;6.65;;
45007;SDS011;30743;52.008;5.644;2024-01-06T12:33:11;9.57;;;7.13;;
45007;SDS011;30743;52.008;5.644;2024-01-06T12:35:37;9.27;;;7.47;;
45007;SDS011;30743;52.008;5.644;2024-01-06T12:38:03;10.55;;;7.10;;
45007;SDS011;30743;52.008;5.644;2024-01-06T12:40:32;10.20;;;6.13;;
45007;SDS011;30743;52.008;5.644;2024-01-06T12:42:59;9.45;;;6.55;;
45007;SDS011;30743;52.008;5.644;2024-01-06T12:45:25;9.13;;;6.03;;
45007;SDS011;30743;52.008;5.644;2024-01-06T12:47:52;8.70;;;6.43;;
45007;SDS011;30743;52.008;5.644;2024-01-06T12:50:19;9.05;;;6.43;;
45007;SDS011;30743;52.008;5.644;2024-01-06T12:52:44;7.32;;;6.07;;
45007;SDS011;30743;52.008;5.644;2024-01-06T12:55:11;9.00;;;6.63;;
45007;SDS011;30743;52.008;5.644;2024-01-06T12:57:36;9.02;;;6.90;;
45007;SDS011;30743;52.008;5.644;2024-01-06T13:00:02;10.20;;;7.60;;
45007;SDS011;30743;52.008;5.644;2024-01-06T13:02:29;12.02;;;7.65;;
45007;SDS011;30743;52.008;5.644;2024-01-06T13:04:54;7.78;;;6.28;;
45007;SDS011;30743;52.008;5.644;2024-01-06T13:07:20;10.45;;;7.28;;
45007;SDS011;30743;52.008;5.644;2024-01-06T13:09:47;7.30;;;5.90;;
45007;SDS011;30743;52.008;5.644;2024-01-06T13:12:13;8.43;;;6.45;;
45007;SDS011;30743;52.008;5.644;2024-01-06T13:14:39;9.52;;;6.95;;
45007;SDS011;30743;52.008;5.644;2024-01-06T13:17:04;7.53;;;6.30;;
45007;SDS011;30743;52.008;5.644;2024-01-06T13:19:31;9.43;;;7.05;;
45007;SDS011;30743;52.008;5.644;2024-01-06T13:21:56;10.73;;;7.45;;
45007;SDS011;30743;52.008;5.644;2024-01-06T13:24:22;9.23;;;6.88;;
45007;SDS011;30743;52.008;5.644;2024-01-06T13:26:48;10.55;;;7.25;;
45007;SDS011;30743;52.008;5.644;2024-01-06T13:29:14;11.18;;;7.82;;
45007;SDS011;30743;52.008;5.644;2024-01-06T13:31:39;11.15;;;8.02;;
45007;SDS011;30743;52.008;5.644;2024-01-06T13:34:05;10.32;;;8.40;;
45007;SDS011;30743;52.008;5.644;2024-01-06T13:36:31;12.20;;;8.57;;
45007;SDS011;30743;52.008;5.644;2024-01-06T13:38:56;9.65;;;7.53;;
45007;SDS011;30743;52.008;5.644;2024-01-06T13:41:24;11.10;;;8.30;;
45007;SDS011;30743;52.008;5.644;2024-01-06T13:43:50;11.45;;;8.18;;
45007;SDS011;30743;52.008;5.644;2024-01-06T13:46:16;11.35;;;8.23;;
45007;SDS011;30743;52.008;5.644;2024-01-06T13:48:41;12.70;;;8.52;;
45007;SDS011;30743;52.008;5.644;2024-01-06T13:51:07;12.43;;;8.75;;
45007;SDS011;30743;52.008;5.644;2024-01-06T13:53:33;11.70;;;8.32;;
45007;SDS011;30743;52.008;5.644;2024-01-06T13:55:58;11.63;;;8.90;;
45007;SDS011;30743;52.008;5.644;2024-01-06T13:58:24;11.02;;;8.55;;
45007;SDS011;30743;52.008;5.644;2024-01-06T14:00:50;11.63;;;7.88;;
45007;SDS011;30743;52.008;5.644;2024-01-06T14:03:15;11.82;;;8.57;;
45007;SDS011;30743;52.008;5.644;2024-01-06T14:05:41;10.90;;;8.20;;
45007;SDS011;30743;52.008;5.644;2024-01-06T14:08:07;11.20;;;7.85;;
45007;SDS011;30743;52.008;5.644;2024-01-06T14:10:32;14.57;;;9.07;;
45007;SDS011;30743;52.008;5.644;2024-01-06T14:12:58;13.38;;;8.10;;
45007;SDS011;30743;52.008;5.644;2024-01-06T14:15:23;12.73;;;8.73;;
45007;SDS011;30743;52.008;5.644;2024-01-06T14:17:51;11.73;;;8.52;;
45007;SDS011;30743;52.008;5.644;2024-01-06T14:20:17;11.77;;;9.57;;
45007;SDS011;30743;52.008;5.644;2024-01-06T14:22:46;12.73;;;9.35;;
45007;SDS011;30743;52.008;5.644;2024-01-06T14:25:14;13.38;;;8.43;;
45007;SDS011;30743;52.008;5.644;2024-01-06T14:27:42;10.52;;;8.85;;
45007;SDS011;30743;52.008;5.644;2024-01-06T14:30:08;12.77;;;8.23;;
45007;SDS011;30743;52.008;5.644;2024-01-06T14:32:35;11.82;;;8.65;;
45007;SDS011;30743;52.008;5.644;2024-01-06T14:35:02;9.93;;;7.70;;
45007;SDS011;30743;52.008;5.644;2024-01-06T14:37:28;11.68;;;7.95;;
45007;SDS011;30743;52.008;5.644;2024-01-06T14:39:54;11.43;;;7.68;;
45007;SDS011;30743;52.008;5.644;2024-01-06T14:42:19;11.05;;;7.57;;